sensor_id;sensor_type;location;lat;lon;timestamp;P1;durP1;ratioP1;P2;durP2;ratioP2
65755;SDS011;52489;47.502;18.940;2022-10-31T00:00:54;102.45;;;11.25;;
65755;SDS011;52489;47.502;18.940;2022-10-31T00:01:57;73.18;;;10.52;;
65755;SDS011;52489;47.502;18.940;2022-10-31T00:03:00;87.05;;;8.45;;
65755;SDS011;52489;47.502;18.940;2022-10-31T00:04:03;47.75;;;7.10;;
65755;SDS011;52489;47.502;18.940;2022-10-31T00:05:07;44.67;;;7.35;;
65755;SDS011;52489;47.502;18.940;2022-10-31T00:06:11;17.33;;;4.93;;
65755;SDS011;52489;47.502;18.940;2022-10-31T00:07:14;51.85;;;7.95;;
65755;SDS011;52489;47.502;18.940;2022-10-31T00:08:17;27.75;;;5.72;;
65755;SDS011;52489;47.502;18.940;2022-10-31T00:09:20;19.40;;;5.07;;
65755;SDS011;52489;47.502;18.940;2022-10-31T00:10:23;40.88;;;5.78;;
65755;SDS011;52489;47.502;18.940;2022-10-31T00:11:26;78.95;;;9.70;;
65755;SDS011;52489;47.502;18.940;2022-10-31T00:12:30;58.95;;;8.48;;
65755;SDS011;52489;47.502;18.940;2022-10-31T00:13:32;50.60;;;7.07;;
65755;SDS011;52489;47.502;18.940;2022-10-31T00:14:35;78.85;;;10.43;;
65755;SDS011;52489;47.502;18.940;2022-10-31T00:15:38;78.62;;;8.98;;
65755;SDS011;52489;47.502;18.940;2022-10-31T00:16:42;162.85;;;14.98;;
65755;SDS011;52489;47.502;18.940;2022-10-31T00:17:45;168.48;;;13.50;;
65755;SDS011;52489;47.502;18.940;2022-10-31T00:18:49;175.10;;;15.73;;
65755;SDS011;52489;47.502;18.940;2022-10-31T00:19:55;63.83;;;6.50;;
65755;SDS011;52489;47.502;18.940;2022-10-31T00:21:02;64.65;;;8.32;;
65755;SDS011;52489;47.502;18.940;2022-10-31T00:22:05;71.10;;;9.23;;
65755;SDS011;52489;47.502;18.940;2022-10-31T00:23:08;40.90;;;5.40;;
65755;SDS011;52489;47.502;18.940;2022-10-31T00:24:13;89.75;;;9.52;;
65755;SDS011;52489;47.502;18.940;2022-10-31T00:25:16;78.28;;;10.43;;
65755;SDS011;52489;47.502;18.940;2022-10-31T00:26:19;56.30;;;6.40;;
65755;SDS011;52489;47.502;18.940;2022-10-31T00:27:22;76.03;;;10.30;;
65755;SDS011;52489;47.502;18.940;2022-10-31T00:28:25;176.37;;;13.77;;
65755;SDS011;52489;47.502;18.940;2022-10-31T00:29:28;52.95;;;7.32;;
65755;SDS011;52489;47.502;18.940;2022-10-31T00:30:30;108.53;;;12.20;;
65755;SDS011;52489;47.502;18.940;2022-10-31T00:31:34;83.72;;;9.80;;
65755;SDS011;52489;47.502;18.940;2022-10-31T00:32:37;75.95;;;9.20;;
65755;SDS011;52489;47.502;18.940;2022-10-31T00:33:40;123.20;;;14.95;;
65755;SDS011;52489;47.502;18.940;2022-10-31T00:34:43;65.57;;;7.57;;
65755;SDS011;52489;47.502;18.940;2022-10-31T00:35:50;92.70;;;11.25;;
65755;SDS011;52489;47.502;18.940;2022-10-31T00:36:53;117.07;;;11.02;;
65755;SDS011;52489;47.502;18.940;2022-10-31T00:37:56;88.57;;;8.93;;
65755;SDS011;52489;47.502;18.940;2022-10-31T00:38:59;101.22;;;10.63;;
65755;SDS011;52489;47.502;18.940;2022-10-31T00:40:02;90.75;;;12.07;;
65755;SDS011;52489;47.502;18.940;2022-10-31T00:41:05;169.55;;;13.07;;
65755;SDS011;52489;47.502;18.940;2022-10-31T00:42:08;58.33;;;7.62;;
65755;SDS011;52489;47.502;18.940;2022-10-31T00:43:10;134.30;;;9.18;;
65755;SDS011;52489;47.502;18.940;2022-10-31T00:44:18;79.00;;;8.43;;
65755;SDS011;52489;47.502;18.940;2022-10-31T00:45:21;47.60;;;7.25;;
65755;SDS011;52489;47.502;18.940;2022-10-31T00:46:24;48.80;;;5.55;;
65755;SDS011;52489;47.502;18.940;2022-10-31T00:47:27;64.82;;;9.00;;
65755;SDS011;52489;47.502;18.940;2022-10-31T00:48:30;42.45;;;4.72;;
65755;SDS011;52489;47.502;18.940;2022-10-31T00:49:33;55.97;;;5.70;;
65755;SDS011;52489;47.502;18.940;2022-10-31T00:50:36;32.15;;;9.48;;
65755;SDS011;52489;47.502;18.940;2022-10-31T00:51:39;88.15;;;9.57;;
65755;SDS011;52489;47.502;18.940;2022-10-31T00:52:42;116.37;;;7.82;;
65755;SDS011;52489;47.502;18.940;2022-10-31T00:53:49;130.80;;;9.90;;
65755;SDS011;52489;47.502;18.940;2022-10-31T00:54:52;73.45;;;9.15;;
65755;SDS011;52489;47.502;18.940;2022-10-31T00:55:54;48.17;;;7.40;;
65755;SDS011;52489;47.502;18.940;2022-10-31T00:56:57;65.12;;;7.85;;
65755;SDS011;52489;47.502;18.940;2022-10-31T00:58:00;30.08;;;5.20;;
65755;SDS011;52489;47.502;18.940;2022-10-31T00:59:05;60.17;;;10.63;;
65755;SDS011;52489;47.502;18.940;2022-10-31T01:00:08;53.75;;;8.52;;
65755;SDS011;52489;47.502;18.940;2022-10-31T01:01:11;98.10;;;8.98;;
65755;SDS011;52489;47.502;18.940;2022-10-31T01:02:14;70.97;;;8.30;;
65755;SDS011;52489;47.502;18.940;2022-10-31T01:03:17;63.03;;;6.25;;
65755;SDS011;52489;47.502;18.940;2022-10-31T01:04:21;46.00;;;4.85;;
65755;SDS011;52489;47.502;18.940;2022-10-31T01:05:24;30.37;;;5.45;;
65755;SDS011;52489;47.502;18.940;2022-10-31T01:06:27;74.87;;;8.30;;
65755;SDS011;52489;47.502;18.940;2022-10-31T01:07:30;20.50;;;4.35;;
65755;SDS011;52489;47.502;18.940;2022-10-31T01:08:33;41.63;;;7.18;;
65755;SDS011;52489;47.502;18.940;2022-10-31T01:09:37;81.12;;;9.02;;
65755;SDS011;52489;47.502;18.940;2022-10-31T01:10:40;83.12;;;6.87;;
65755;SDS011;52489;47.502;18.940;2022-10-31T01:11:43;94.03;;;10.75;;
65755;SDS011;52489;47.502;18.940;2022-10-31T01:12:47;15.50;;;4.10;;
65755;SDS011;52489;47.502;18.940;2022-10-31T01:13:51;8.68;;;3.20;;
65755;SDS011;52489;47.502;18.940;2022-10-31T01:14:55;69.37;;;7.70;;
65755;SDS011;52489;47.502;18.940;2022-10-31T01:15:59;7.75;;;3.12;;
65755;SDS011;52489;47.502;18.940;2022-10-31T01:17:04;49.72;;;4.65;;
65755;SDS011;52489;47.502;18.940;2022-10-31T01:18:07;6.53;;;3.25;;
65755;SDS011;52489;47.502;18.940;2022-10-31T01:19:10;33.47;;;3.33;;
65755;SDS011;52489;47.502;18.940;2022-10-31T01:20:13;16.33;;;3.30;;
65755;SDS011;52489;47.502;18.940;2022-10-31T01:21:19;29.52;;;3.45;;
65755;SDS011;52489;47.502;18.940;2022-10-31T01:22:24;37.83;;;5.95;;
65755;SDS011;52489;47.502;18.940;2022-10-31T01:23:27;51.70;;;4.90;;
65755;SDS011;52489;47.502;18.940;2022-10-31T01:24:30;53.03;;;6.43;;
65755;SDS011;52489;47.502;18.940;2022-10-31T01:25:34;60.30;;;7.25;;
65755;SDS011;52489;47.502;18.940;2022-10-31T01:26:37;69.78;;;7.55;;
65755;SDS011;52489;47.502;18.940;2022-10-31T01:27:39;45.58;;;4.55;;
65755;SDS011;52489;47.502;18.940;2022-10-31T01:28:49;101.22;;;10.95;;
65755;SDS011;52489;47.502;18.940;2022-10-31T01:29:54;45.50;;;8.20;;
65755;SDS011;52489;47.502;18.940;2022-10-31T01:30:59;40.28;;;6.10;;
65755;SDS011;52489;47.502;18.940;2022-10-31T01:32:04;15.10;;;3.45;;
65755;SDS011;52489;47.502;18.940;2022-10-31T01:33:07;20.52;;;4.68;;
65755;SDS011;52489;47.502;18.940;2022-10-31T01:34:12;69.80;;;7.30;;
65755;SDS011;52489;47.502;18.940;2022-10-31T01:35:17;19.15;;;3.62;;
65755;SDS011;52489;47.502;18.940;2022-10-31T01:36:22;42.88;;;5.30;;
65755;SDS011;52489;47.502;18.940;2022-10-31T01:37:26;55.38;;;6.20;;
65755;SDS011;52489;47.502;18.940;2022-10-31T01:38:33;14.07;;;3.65;;
65755;SDS011;52489;47.502;18.940;2022-10-31T01:39:36;29.73;;;3.85;;
65755;SDS011;52489;47.502;18.940;2022-10-31T01:40:39;28.45;;;3.97;;
65755;SDS011;52489;47.502;18.940;2022-10-31T01:41:43;4.80;;;2.83;;
65755;SDS011;52489;47.502;18.940;2022-10-31T01:42:48;5.22;;;2.37;;
65755;SDS011;52489;47.502;18.940;2022-10-31T01:43:52;3.58;;;2.40;;
65755;SDS011;52489;47.502;18.940;2022-10-31T01:45:02;5.22;;;2.40;;
65755;SDS011;52489;47.502;18.940;2022-10-31T01:46:07;17.35;;;5.07;;
65755;SDS011;52489;47.502;18.940;2022-10-31T01:47:14;65.72;;;6.20;;
65755;SDS011;52489;47.502;18.940;2022-10-31T01:48:23;12.55;;;2.95;;
65755;SDS011;52489;47.502;18.940;2022-10-31T01:49:45;12.35;;;2.35;;
65755;SDS011;52489;47.502;18.940;2022-10-31T01:50:51;9.18;;;2.20;;
65755;SDS011;52489;47.502;18.940;2022-10-31T01:51:58;68.03;;;5.03;;
65755;SDS011;52489;47.502;18.940;2022-10-31T01:53:05;39.65;;;7.22;;
65755;SDS011;52489;47.502;18.940;2022-10-31T01:54:11;50.05;;;5.72;;
65755;SDS011;52489;47.502;18.940;2022-10-31T01:55:18;8.90;;;2.95;;
65755;SDS011;52489;47.502;18.940;2022-10-31T01:56:31;25.37;;;4.12;;
65755;SDS011;52489;47.502;18.940;2022-10-31T01:57:37;34.17;;;4.70;;
65755;SDS011;52489;47.502;18.940;2022-10-31T01:58:45;22.67;;;4.60;;
65755;SDS011;52489;47.502;18.940;2022-10-31T01:59:49;94.68;;;8.75;;
65755;SDS011;52489;47.502;18.940;2022-10-31T02:00:58;81.30;;;6.82;;
65755;SDS011;52489;47.502;18.940;2022-10-31T02:02:09;50.78;;;7.65;;
65755;SDS011;52489;47.502;18.940;2022-10-31T02:03:13;40.17;;;4.28;;
65755;SDS011;52489;47.502;18.940;2022-10-31T02:04:17;59.22;;;6.47;;
65755;SDS011;52489;47.502;18.940;2022-10-31T02:05:22;38.65;;;5.12;;
65755;SDS011;52489;47.502;18.940;2022-10-31T02:07:55;70.82;;;7.47;;
65755;SDS011;52489;47.502;18.940;2022-10-31T02:09:29;75.55;;;7.00;;
65755;SDS011;52489;47.502;18.940;2022-10-31T02:10:34;37.00;;;5.47;;
65755;SDS011;52489;47.502;18.940;2022-10-31T02:11:39;115.70;;;9.85;;
65755;SDS011;52489;47.502;18.940;2022-10-31T02:12:43;97.32;;;11.43;;
65755;SDS011;52489;47.502;18.940;2022-10-31T02:13:47;41.72;;;7.43;;
65755;SDS011;52489;47.502;18.940;2022-10-31T02:14:50;68.85;;;5.12;;
65755;SDS011;52489;47.502;18.940;2022-10-31T02:15:54;46.58;;;5.12;;
65755;SDS011;52489;47.502;18.940;2022-10-31T02:16:59;87.22;;;10.38;;
65755;SDS011;52489;47.502;18.940;2022-10-31T02:18:02;108.12;;;9.82;;
65755;SDS011;52489;47.502;18.940;2022-10-31T02:19:06;112.30;;;8.93;;
65755;SDS011;52489;47.502;18.940;2022-10-31T02:20:23;57.10;;;6.82;;
65755;SDS011;52489;47.502;18.940;2022-10-31T02:23:58;108.12;;;9.70;;
65755;SDS011;52489;47.502;18.940;2022-10-31T02:30:07;11.82;;;2.05;;
65755;SDS011;52489;47.502;18.940;2022-10-31T02:31:36;36.60;;;4.25;;
65755;SDS011;52489;47.502;18.940;2022-10-31T02:33:01;18.52;;;2.75;;
65755;SDS011;52489;47.502;18.940;2022-10-31T02:34:43;14.87;;;3.83;;
65755;SDS011;52489;47.502;18.940;2022-10-31T02:37:13;10.60;;;2.60;;
65755;SDS011;52489;47.502;18.940;2022-10-31T02:40:29;18.70;;;3.30;;
65755;SDS011;52489;47.502;18.940;2022-10-31T02:41:46;19.02;;;3.30;;
65755;SDS011;52489;47.502;18.940;2022-10-31T02:44:29;26.62;;;2.95;;
65755;SDS011;52489;47.502;18.940;2022-10-31T02:47:08;45.75;;;4.00;;
65755;SDS011;52489;47.502;18.940;2022-10-31T02:48:20;39.17;;;4.07;;
65755;SDS011;52489;47.502;18.940;2022-10-31T02:49:33;34.45;;;4.20;;
65755;SDS011;52489;47.502;18.940;2022-10-31T02:50:43;104.47;;;7.82;;
65755;SDS011;52489;47.502;18.940;2022-10-31T02:51:54;26.92;;;6.85;;
65755;SDS011;52489;47.502;18.940;2022-10-31T02:52:57;211.55;;;16.25;;
65755;SDS011;52489;47.502;18.940;2022-10-31T02:54:00;106.03;;;10.50;;
65755;SDS011;52489;47.502;18.940;2022-10-31T02:55:40;44.10;;;5.50;;
65755;SDS011;52489;47.502;18.940;2022-10-31T02:56:35;50.92;;;5.95;;
65755;SDS011;52489;47.502;18.940;2022-10-31T02:57:38;105.40;;;9.23;;
65755;SDS011;52489;47.502;18.940;2022-10-31T02:58:48;117.10;;;14.82;;
65755;SDS011;52489;47.502;18.940;2022-10-31T02:59:58;63.80;;;6.93;;
65755;SDS011;52489;47.502;18.940;2022-10-31T03:05:08;91.82;;;7.97;;
65755;SDS011;52489;47.502;18.940;2022-10-31T03:09:27;23.10;;;5.30;;
65755;SDS011;52489;47.502;18.940;2022-10-31T03:11:08;33.00;;;3.12;;
65755;SDS011;52489;47.502;18.940;2022-10-31T03:12:17;18.48;;;5.40;;
65755;SDS011;52489;47.502;18.940;2022-10-31T03:16:39;3.37;;;1.65;;
65755;SDS011;52489;47.502;18.940;2022-10-31T03:19:09;34.55;;;5.95;;
65755;SDS011;52489;47.502;18.940;2022-10-31T03:22:25;18.37;;;5.30;;
65755;SDS011;52489;47.502;18.940;2022-10-31T03:23:32;32.33;;;2.47;;
65755;SDS011;52489;47.502;18.940;2022-10-31T03:24:38;9.00;;;2.40;;
65755;SDS011;52489;47.502;18.940;2022-10-31T03:25:42;13.98;;;4.30;;
65755;SDS011;52489;47.502;18.940;2022-10-31T03:26:49;55.70;;;6.65;;
65755;SDS011;52489;47.502;18.940;2022-10-31T03:27:55;23.90;;;5.00;;
65755;SDS011;52489;47.502;18.940;2022-10-31T03:29:08;30.62;;;4.75;;
65755;SDS011;52489;47.502;18.940;2022-10-31T03:30:16;29.67;;;5.30;;
65755;SDS011;52489;47.502;18.940;2022-10-31T03:31:21;23.80;;;4.55;;
65755;SDS011;52489;47.502;18.940;2022-10-31T03:33:37;20.75;;;4.05;;
65755;SDS011;52489;47.502;18.940;2022-10-31T03:34:42;37.60;;;5.28;;
65755;SDS011;52489;47.502;18.940;2022-10-31T03:35:48;52.80;;;5.18;;
65755;SDS011;52489;47.502;18.940;2022-10-31T03:36:57;12.40;;;3.20;;
65755;SDS011;52489;47.502;18.940;2022-10-31T03:38:04;42.33;;;6.50;;
65755;SDS011;52489;47.502;18.940;2022-10-31T03:39:10;5.53;;;2.20;;
65755;SDS011;52489;47.502;18.940;2022-10-31T03:40:17;35.45;;;4.00;;
65755;SDS011;52489;47.502;18.940;2022-10-31T03:41:23;3.85;;;2.35;;
65755;SDS011;52489;47.502;18.940;2022-10-31T03:42:31;5.37;;;2.80;;
65755;SDS011;52489;47.502;18.940;2022-10-31T03:43:38;57.97;;;5.68;;
65755;SDS011;52489;47.502;18.940;2022-10-31T03:44:53;7.07;;;2.47;;
65755;SDS011;52489;47.502;18.940;2022-10-31T03:46:01;27.67;;;4.62;;
65755;SDS011;52489;47.502;18.940;2022-10-31T03:47:05;27.40;;;3.65;;
65755;SDS011;52489;47.502;18.940;2022-10-31T03:48:09;43.60;;;4.68;;
65755;SDS011;52489;47.502;18.940;2022-10-31T03:49:12;25.23;;;4.25;;
65755;SDS011;52489;47.502;18.940;2022-10-31T03:50:16;38.22;;;5.57;;
65755;SDS011;52489;47.502;18.940;2022-10-31T03:52:42;11.57;;;3.80;;
65755;SDS011;52489;47.502;18.940;2022-10-31T03:53:56;28.25;;;4.28;;
65755;SDS011;52489;47.502;18.940;2022-10-31T03:55:10;34.70;;;4.03;;
65755;SDS011;52489;47.502;18.940;2022-10-31T03:57:00;12.50;;;2.62;;
65755;SDS011;52489;47.502;18.940;2022-10-31T03:58:27;12.30;;;3.10;;
65755;SDS011;52489;47.502;18.940;2022-10-31T03:59:36;14.27;;;4.22;;
65755;SDS011;52489;47.502;18.940;2022-10-31T04:00:44;13.40;;;2.55;;
65755;SDS011;52489;47.502;18.940;2022-10-31T04:01:49;36.08;;;4.47;;
65755;SDS011;52489;47.502;18.940;2022-10-31T04:03:15;17.12;;;2.97;;
65755;SDS011;52489;47.502;18.940;2022-10-31T04:04:24;39.95;;;4.93;;
65755;SDS011;52489;47.502;18.940;2022-10-31T04:05:29;4.50;;;2.17;;
65755;SDS011;52489;47.502;18.940;2022-10-31T04:06:34;15.90;;;2.42;;
65755;SDS011;52489;47.502;18.940;2022-10-31T04:07:41;26.00;;;3.80;;
65755;SDS011;52489;47.502;18.940;2022-10-31T04:08:52;7.15;;;2.10;;
65755;SDS011;52489;47.502;18.940;2022-10-31T04:10:00;44.13;;;6.22;;
65755;SDS011;52489;47.502;18.940;2022-10-31T04:11:07;26.00;;;3.37;;
65755;SDS011;52489;47.502;18.940;2022-10-31T04:12:13;7.22;;;1.92;;
65755;SDS011;52489;47.502;18.940;2022-10-31T04:13:19;2.92;;;2.03;;
65755;SDS011;52489;47.502;18.940;2022-10-31T04:14:27;2.62;;;1.60;;
65755;SDS011;52489;47.502;18.940;2022-10-31T04:15:33;2.50;;;1.80;;
65755;SDS011;52489;47.502;18.940;2022-10-31T04:16:40;3.50;;;1.98;;
65755;SDS011;52489;47.502;18.940;2022-10-31T04:17:45;2.85;;;1.90;;
65755;SDS011;52489;47.502;18.940;2022-10-31T04:18:51;3.83;;;1.60;;
65755;SDS011;52489;47.502;18.940;2022-10-31T04:19:55;2.00;;;1.73;;
65755;SDS011;52489;47.502;18.940;2022-10-31T04:21:04;2.50;;;1.70;;
65755;SDS011;52489;47.502;18.940;2022-10-31T04:22:08;1.48;;;1.37;;
65755;SDS011;52489;47.502;18.940;2022-10-31T04:23:18;4.10;;;2.35;;
65755;SDS011;52489;47.502;18.940;2022-10-31T04:24:24;4.00;;;1.67;;
65755;SDS011;52489;47.502;18.940;2022-10-31T04:25:27;12.70;;;2.47;;
65755;SDS011;52489;47.502;18.940;2022-10-31T04:26:31;2.12;;;1.65;;
65755;SDS011;52489;47.502;18.940;2022-10-31T04:27:34;2.28;;;1.48;;
65755;SDS011;52489;47.502;18.940;2022-10-31T04:28:37;2.62;;;1.75;;
65755;SDS011;52489;47.502;18.940;2022-10-31T04:29:40;3.62;;;1.60;;
65755;SDS011;52489;47.502;18.940;2022-10-31T04:30:49;2.80;;;1.45;;
65755;SDS011;52489;47.502;18.940;2022-10-31T04:31:52;2.70;;;1.67;;
65755;SDS011;52489;47.502;18.940;2022-10-31T04:32:55;3.45;;;1.80;;
65755;SDS011;52489;47.502;18.940;2022-10-31T04:33:58;7.03;;;1.90;;
65755;SDS011;52489;47.502;18.940;2022-10-31T04:35:01;2.28;;;1.70;;
65755;SDS011;52489;47.502;18.940;2022-10-31T04:36:08;2.30;;;1.65;;
65755;SDS011;52489;47.502;18.940;2022-10-31T04:37:11;3.53;;;1.85;;
65755;SDS011;52489;47.502;18.940;2022-10-31T04:38:14;3.80;;;1.90;;
65755;SDS011;52489;47.502;18.940;2022-10-31T04:39:17;3.47;;;1.90;;
65755;SDS011;52489;47.502;18.940;2022-10-31T04:40:28;6.97;;;1.95;;
65755;SDS011;52489;47.502;18.940;2022-10-31T04:41:30;3.35;;;2.03;;
65755;SDS011;52489;47.502;18.940;2022-10-31T04:42:33;3.08;;;1.90;;
65755;SDS011;52489;47.502;18.940;2022-10-31T04:43:36;3.67;;;2.12;;
65755;SDS011;52489;47.502;18.940;2022-10-31T04:44:39;2.75;;;1.60;;
65755;SDS011;52489;47.502;18.940;2022-10-31T04:45:42;2.33;;;1.60;;
65755;SDS011;52489;47.502;18.940;2022-10-31T04:46:45;1.83;;;1.60;;
65755;SDS011;52489;47.502;18.940;2022-10-31T04:47:48;2.37;;;1.67;;
65755;SDS011;52489;47.502;18.940;2022-10-31T04:48:51;2.35;;;1.45;;
65755;SDS011;52489;47.502;18.940;2022-10-31T04:49:54;1.92;;;1.52;;
65755;SDS011;52489;47.502;18.940;2022-10-31T04:51:00;2.03;;;1.70;;
65755;SDS011;52489;47.502;18.940;2022-10-31T04:53:10;2.12;;;1.62;;
65755;SDS011;52489;47.502;18.940;2022-10-31T04:54:13;5.03;;;1.30;;
65755;SDS011;52489;47.502;18.940;2022-10-31T04:55:20;3.65;;;2.15;;
65755;SDS011;52489;47.502;18.940;2022-10-31T04:56:23;3.20;;;1.70;;
65755;SDS011;52489;47.502;18.940;2022-10-31T04:57:26;1.85;;;1.50;;
65755;SDS011;52489;47.502;18.940;2022-10-31T04:58:29;3.62;;;1.73;;
65755;SDS011;52489;47.502;18.940;2022-10-31T04:59:32;4.25;;;2.45;;
65755;SDS011;52489;47.502;18.940;2022-10-31T05:00:35;2.53;;;1.50;;
65755;SDS011;52489;47.502;18.940;2022-10-31T05:01:38;2.70;;;2.03;;
65755;SDS011;52489;47.502;18.940;2022-10-31T05:02:48;3.50;;;2.03;;
65755;SDS011;52489;47.502;18.940;2022-10-31T05:03:52;3.28;;;2.03;;
65755;SDS011;52489;47.502;18.940;2022-10-31T05:04:55;6.75;;;2.35;;
65755;SDS011;52489;47.502;18.940;2022-10-31T05:05:58;2.85;;;2.15;;
65755;SDS011;52489;47.502;18.940;2022-10-31T05:07:01;6.07;;;2.17;;
65755;SDS011;52489;47.502;18.940;2022-10-31T05:08:04;13.00;;;2.55;;
65755;SDS011;52489;47.502;18.940;2022-10-31T05:09:06;2.70;;;1.87;;
65755;SDS011;52489;47.502;18.940;2022-10-31T05:10:10;3.92;;;2.37;;
65755;SDS011;52489;47.502;18.940;2022-10-31T05:11:15;14.82;;;2.47;;
65755;SDS011;52489;47.502;18.940;2022-10-31T05:12:18;5.37;;;2.20;;
65755;SDS011;52489;47.502;18.940;2022-10-31T05:13:21;3.33;;;2.00;;
65755;SDS011;52489;47.502;18.940;2022-10-31T05:14:24;4.60;;;2.03;;
65755;SDS011;52489;47.502;18.940;2022-10-31T05:15:27;2.55;;;1.60;;
65755;SDS011;52489;47.502;18.940;2022-10-31T05:16:31;9.82;;;2.55;;
65755;SDS011;52489;47.502;18.940;2022-10-31T05:17:34;3.05;;;1.85;;
65755;SDS011;52489;47.502;18.940;2022-10-31T05:18:37;3.37;;;2.00;;
65755;SDS011;52489;47.502;18.940;2022-10-31T05:19:43;2.58;;;1.73;;
65755;SDS011;52489;47.502;18.940;2022-10-31T05:20:46;27.35;;;3.70;;
65755;SDS011;52489;47.502;18.940;2022-10-31T05:21:49;2.58;;;1.60;;
65755;SDS011;52489;47.502;18.940;2022-10-31T05:22:53;54.28;;;3.65;;
65755;SDS011;52489;47.502;18.940;2022-10-31T05:23:57;8.00;;;1.85;;
65755;SDS011;52489;47.502;18.940;2022-10-31T05:25:00;6.57;;;1.62;;
65755;SDS011;52489;47.502;18.940;2022-10-31T05:26:03;10.43;;;1.98;;
65755;SDS011;52489;47.502;18.940;2022-10-31T05:27:06;2.10;;;1.45;;
65755;SDS011;52489;47.502;18.940;2022-10-31T05:28:09;3.42;;;1.80;;
65755;SDS011;52489;47.502;18.940;2022-10-31T05:29:12;8.10;;;1.98;;
65755;SDS011;52489;47.502;18.940;2022-10-31T05:30:17;3.22;;;2.15;;
65755;SDS011;52489;47.502;18.940;2022-10-31T05:31:22;4.03;;;1.85;;
65755;SDS011;52489;47.502;18.940;2022-10-31T05:32:25;2.40;;;1.60;;
65755;SDS011;52489;47.502;18.940;2022-10-31T05:33:28;4.80;;;2.60;;
65755;SDS011;52489;47.502;18.940;2022-10-31T05:34:31;3.37;;;1.52;;
65755;SDS011;52489;47.502;18.940;2022-10-31T05:35:34;4.30;;;1.73;;
65755;SDS011;52489;47.502;18.940;2022-10-31T05:36:36;3.25;;;2.00;;
65755;SDS011;52489;47.502;18.940;2022-10-31T05:37:39;3.22;;;2.08;;
65755;SDS011;52489;47.502;18.940;2022-10-31T05:38:43;2.00;;;1.70;;
65755;SDS011;52489;47.502;18.940;2022-10-31T05:39:45;2.28;;;1.50;;
65755;SDS011;52489;47.502;18.940;2022-10-31T05:40:48;4.40;;;2.00;;
65755;SDS011;52489;47.502;18.940;2022-10-31T05:41:51;3.05;;;1.60;;
65755;SDS011;52489;47.502;18.940;2022-10-31T05:42:55;2.85;;;1.70;;
65755;SDS011;52489;47.502;18.940;2022-10-31T05:44:03;2.58;;;1.60;;
65755;SDS011;52489;47.502;18.940;2022-10-31T05:45:07;3.40;;;1.67;;
65755;SDS011;52489;47.502;18.940;2022-10-31T05:46:11;5.22;;;2.35;;
65755;SDS011;52489;47.502;18.940;2022-10-31T05:47:14;3.22;;;1.90;;
65755;SDS011;52489;47.502;18.940;2022-10-31T05:48:17;6.00;;;2.30;;
65755;SDS011;52489;47.502;18.940;2022-10-31T05:49:20;6.05;;;2.25;;
65755;SDS011;52489;47.502;18.940;2022-10-31T05:50:24;2.70;;;1.80;;
65755;SDS011;52489;47.502;18.940;2022-10-31T05:51:28;4.40;;;2.28;;
65755;SDS011;52489;47.502;18.940;2022-10-31T05:52:31;1.75;;;1.62;;
65755;SDS011;52489;47.502;18.940;2022-10-31T05:53:34;1.90;;;1.52;;
65755;SDS011;52489;47.502;18.940;2022-10-31T05:54:37;4.57;;;2.50;;
65755;SDS011;52489;47.502;18.940;2022-10-31T05:55:40;4.57;;;1.77;;
65755;SDS011;52489;47.502;18.940;2022-10-31T05:56:44;7.45;;;1.87;;
65755;SDS011;52489;47.502;18.940;2022-10-31T05:57:47;9.55;;;2.80;;
65755;SDS011;52489;47.502;18.940;2022-10-31T05:58:50;8.45;;;3.05;;
65755;SDS011;52489;47.502;18.940;2022-10-31T05:59:53;3.95;;;2.03;;
65755;SDS011;52489;47.502;18.940;2022-10-31T06:00:56;1.30;;;1.20;;
65755;SDS011;52489;47.502;18.940;2022-10-31T06:01:59;3.33;;;1.75;;
65755;SDS011;52489;47.502;18.940;2022-10-31T06:03:05;3.42;;;1.75;;
65755;SDS011;52489;47.502;18.940;2022-10-31T06:04:10;2.58;;;1.52;;
65755;SDS011;52489;47.502;18.940;2022-10-31T06:05:13;2.70;;;1.75;;
65755;SDS011;52489;47.502;18.940;2022-10-31T06:06:16;2.92;;;2.00;;
65755;SDS011;52489;47.502;18.940;2022-10-31T06:07:19;1.48;;;1.37;;
65755;SDS011;52489;47.502;18.940;2022-10-31T06:08:22;3.08;;;1.65;;
65755;SDS011;52489;47.502;18.940;2022-10-31T06:09:25;2.22;;;1.87;;
65755;SDS011;52489;47.502;18.940;2022-10-31T06:10:28;1.80;;;1.37;;
65755;SDS011;52489;47.502;18.940;2022-10-31T06:11:31;2.28;;;1.58;;
65755;SDS011;52489;47.502;18.940;2022-10-31T06:12:35;3.92;;;1.90;;
65755;SDS011;52489;47.502;18.940;2022-10-31T06:13:43;3.12;;;1.58;;
65755;SDS011;52489;47.502;18.940;2022-10-31T06:14:46;4.55;;;2.22;;
65755;SDS011;52489;47.502;18.940;2022-10-31T06:15:49;3.58;;;2.03;;
65755;SDS011;52489;47.502;18.940;2022-10-31T06:16:53;2.58;;;1.60;;
65755;SDS011;52489;47.502;18.940;2022-10-31T06:17:57;4.87;;;2.17;;
65755;SDS011;52489;47.502;18.940;2022-10-31T06:19:05;2.55;;;1.73;;
65755;SDS011;52489;47.502;18.940;2022-10-31T06:20:11;3.67;;;2.12;;
65755;SDS011;52489;47.502;18.940;2022-10-31T06:21:14;3.05;;;1.87;;
65755;SDS011;52489;47.502;18.940;2022-10-31T06:22:20;4.00;;;2.15;;
65755;SDS011;52489;47.502;18.940;2022-10-31T06:23:23;4.40;;;2.22;;
65755;SDS011;52489;47.502;18.940;2022-10-31T06:24:26;3.75;;;2.78;;
65755;SDS011;52489;47.502;18.940;2022-10-31T06:25:29;8.68;;;1.73;;
65755;SDS011;52489;47.502;18.940;2022-10-31T06:26:32;24.17;;;3.62;;
65755;SDS011;52489;47.502;18.940;2022-10-31T06:27:35;4.50;;;2.20;;
65755;SDS011;52489;47.502;18.940;2022-10-31T06:28:37;3.55;;;2.20;;
65755;SDS011;52489;47.502;18.940;2022-10-31T06:29:40;3.50;;;2.00;;
65755;SDS011;52489;47.502;18.940;2022-10-31T06:30:43;13.13;;;3.50;;
65755;SDS011;52489;47.502;18.940;2022-10-31T06:31:46;12.07;;;3.12;;
65755;SDS011;52489;47.502;18.940;2022-10-31T06:32:49;3.22;;;1.62;;
65755;SDS011;52489;47.502;18.940;2022-10-31T06:33:52;3.60;;;1.90;;
65755;SDS011;52489;47.502;18.940;2022-10-31T06:34:55;12.52;;;2.35;;
65755;SDS011;52489;47.502;18.940;2022-10-31T06:35:58;14.75;;;2.70;;
65755;SDS011;52489;47.502;18.940;2022-10-31T06:37:01;10.18;;;2.17;;
65755;SDS011;52489;47.502;18.940;2022-10-31T06:38:04;2.85;;;1.90;;
65755;SDS011;52489;47.502;18.940;2022-10-31T06:39:07;7.05;;;2.28;;
65755;SDS011;52489;47.502;18.940;2022-10-31T06:40:10;9.63;;;2.15;;
65755;SDS011;52489;47.502;18.940;2022-10-31T06:41:13;2.58;;;1.60;;
65755;SDS011;52489;47.502;18.940;2022-10-31T06:42:16;2.72;;;1.52;;
65755;SDS011;52489;47.502;18.940;2022-10-31T06:43:20;1.67;;;1.48;;
65755;SDS011;52489;47.502;18.940;2022-10-31T06:44:23;6.87;;;2.53;;
65755;SDS011;52489;47.502;18.940;2022-10-31T06:45:26;4.55;;;2.20;;
65755;SDS011;52489;47.502;18.940;2022-10-31T06:46:29;26.90;;;3.00;;
65755;SDS011;52489;47.502;18.940;2022-10-31T06:47:32;3.03;;;1.90;;
65755;SDS011;52489;47.502;18.940;2022-10-31T06:48:46;29.05;;;2.97;;
65755;SDS011;52489;47.502;18.940;2022-10-31T06:49:49;3.65;;;1.50;;
65755;SDS011;52489;47.502;18.940;2022-10-31T06:50:52;4.30;;;1.92;;
65755;SDS011;52489;47.502;18.940;2022-10-31T06:52:00;7.43;;;1.52;;
65755;SDS011;52489;47.502;18.940;2022-10-31T06:53:03;4.10;;;2.10;;
65755;SDS011;52489;47.502;18.940;2022-10-31T06:54:06;8.68;;;2.83;;
65755;SDS011;52489;47.502;18.940;2022-10-31T06:55:09;8.13;;;2.37;;
65755;SDS011;52489;47.502;18.940;2022-10-31T06:56:12;8.88;;;3.08;;
65755;SDS011;52489;47.502;18.940;2022-10-31T06:57:15;3.58;;;2.35;;
65755;SDS011;52489;47.502;18.940;2022-10-31T06:58:18;26.25;;;3.50;;